PST,Max TemperatureF,Mean TemperatureF,Min TemperatureF,Max Dew PointF,MeanDew PointF,Min DewpointF,Max Humidity, Mean Humidity, Min Humidity, Max Sea Level PressureIn, Mean Sea Level PressureIn, Min Sea Level PressureIn, Max VisibilityMiles, Mean VisibilityMiles, Min VisibilityMiles, Max Wind SpeedMPH, Mean Wind SpeedMPH, Max Gust SpeedMPH,PrecipitationIn, CloudCover, Events, WindDirDegrees
2013-1-1,28,17,6,16,13,10,96,77,58,30.63,30.50,30.38,10,3,0,9,3,13,0.00,6,Fog,306
2013-1-2,18,16,13,12,11,9,96,88,80,30.59,30.47,30.37,10,3,0,8,1,9,T,8,Fog-Snow,327
2013-1-3,27,16,6,15,8,3,92,80,61,30.46,30.37,30.27,10,8,0,7,1,,0.00,4,Snow,314
2013-1-4,42,25,8,22,13,5,84,64,44,30.45,30.37,30.29,10,10,10,12,3,15,0.00,0,,28
2013-1-5,28,21,14,25,19,11,100,87,74,30.33,30.24,30.14,10,6,1,8,2,8,0.01,6,Snow,349
2013-1-6,42,28,14,27,23,13,96,75,53,30.25,30.19,30.11,10,10,7,9,2,13,0.00,4,,73
2013-1-7,50,41,31,34,29,24,85,69,52,30.16,30.11,30.04,10,10,10,31,5,39,0.00,5,,48
2013-1-8,52,44,36,37,33,29,79,67,54,30.16,30.09,29.97,10,10,10,25,10,32,0.00,4,,176
2013-1-9,49,37,25,34,27,17,82,68,53,29.96,29.83,29.72,10,10,10,23,11,32,0.02,4,Rain,256
2013-1-10,32,19,6,25,20,4,92,81,69,30.06,29.97,29.89,10,7,0,12,3,15,0.12,3,Fog-Snow,197
2013-1-11,30,17,3,16,9,0,91,70,49,30.31,30.19,30.06,10,10,10,14,4,16,0.00,3,,332
2013-1-12,28,14,-1,11,4,-1,91,71,50,30.41,30.34,30.29,10,10,10,9,4,12,0.00,0,,150
2013-1-13,30,14,-3,9,2,-6,87,62,36,30.49,30.45,30.39,10,10,10,7,2,10,0.00,0,,152
2013-1-14,38,20,1,14,7,-1,86,59,32,30.53,30.47,30.39,10,10,10,8,3,9,0.00,1,,121
2013-1-15,48,29,10,22,15,8,84,61,37,30.65,30.61,30.52,10,10,10,9,3,12,0.00,0,,151
2013-1-16,53,33,13,21,17,11,81,55,28,30.66,30.58,30.50,10,10,10,10,3,14,0.00,0,,139
2013-1-17,50,33,16,23,18,13,84,57,29,30.54,30.46,30.39,10,10,10,7,2,9,0.00,0,,32
2013-1-18,49,35,20,24,18,13,85,58,31,30.42,30.38,30.33,10,10,10,8,1,10,0.00,0,,27
2013-1-19,56,35,13,22,17,11,88,56,24,30.46,30.40,30.33,10,10,10,10,1,14,0.00,0,,147
2013-1-20,52,33,14,23,16,10,92,58,24,30.48,30.41,30.35,10,10,10,10,2,13,0.00,0,,89
2013-1-21,52,35,17,22,16,11,91,58,24,30.35,30.28,30.18,10,10,10,15,5,20,0.00,0,,129
2013-1-22,38,26,14,23,18,12,92,72,52,30.25,30.18,30.08,10,10,10,9,3,10,0.00,0,,299
2013-1-23,52,38,23,34,28,20,100,72,44,30.14,30.01,29.88,10,10,5,24,5,32,0.01,6,Rain,311
2013-1-24,53,41,29,36,32,28,100,73,46,30.19,30.14,30.09,10,10,10,18,4,23,0.02,6,Rain,168
2013-1-25,47,42,37,41,37,34,93,82,70,30.12,30.01,29.91,10,9,5,14,5,20,0.23,6,Rain,154
2013-1-26,42,34,25,33,27,22,96,72,48,30.03,29.95,29.88,10,9,2,17,4,20,T,4,Snow,33
2013-1-27,40,31,22,28,23,19,88,66,44,30.10,30.06,30.01,10,10,4,23,5,28,T,5,Snow,193
2013-1-28,38,34,29,29,26,23,92,76,59,30.11,30.07,30.01,10,10,10,29,13,36,0.00,5,,291
2013-1-29,45,40,34,30,29,28,82,70,57,30.40,30.27,30.09,10,10,10,25,10,35,0.00,4,,314
2013-1-30,49,41,33,33,31,28,82,69,56,30.42,30.40,30.39,10,10,10,18,4,24,T,5,,33
2013-1-31,50,38,26,32,29,26,92,71,50,30.40,30.35,30.30,10,10,10,9,4,14,0.00,1,,130